createdAt,value
2023-05-02T00:01:49.050Z,77.27
2023-05-02T00:06:53.984Z,77.38
2023-05-02T00:11:56.818Z,77.48
2023-05-02T00:16:59.673Z,77.39
2023-05-02T00:22:02.468Z,76.78
2023-05-02T00:27:06.542Z,77.34
2023-05-02T00:32:09.439Z,76.66
2023-05-02T00:37:13.540Z,75.42
2023-05-02T00:42:16.389Z,75.65
2023-05-02T00:47:19.219Z,75.31
2023-05-02T00:52:22.067Z,75.17
2023-05-02T00:57:25.934Z,75.51
2023-05-02T01:02:33.248Z,75.15
2023-05-02T01:08:06.246Z,74.69
2023-05-02T01:13:13.084Z,74.82
2023-05-02T01:18:18.845Z,74.56
2023-05-02T01:23:31.192Z,72.62
2023-05-02T01:28:55.417Z,71.52
2023-05-02T01:33:59.640Z,69.64
2023-05-02T01:39:03.357Z,69.13
2023-05-02T01:44:06.883Z,69.41
2023-05-02T01:49:09.935Z,69.66
2023-05-02T01:54:14.063Z,69.36
2023-05-02T01:59:20.644Z,69.84
2023-05-02T02:04:24.534Z,68.74
2023-05-02T02:09:27.398Z,69.08
2023-05-02T02:14:35.099Z,67.12
2023-05-02T02:19:39.061Z,66.52
2023-05-02T02:24:44.396Z,66.69
2023-05-02T02:29:47.195Z,67.40
2023-05-02T02:34:50.080Z,67.73
2023-05-02T02:40:14.491Z,67.48
2023-05-02T02:46:00.076Z,66.77
2023-05-02T02:51:09.799Z,65.69
2023-05-02T02:56:28.540Z,64.69
2023-05-02T03:01:32.831Z,63.64
2023-05-02T03:06:35.893Z,63.72
2023-05-02T03:11:39.798Z,62.78
2023-05-02T03:16:43.003Z,60.98
2023-05-02T03:21:50.906Z,61.54
2023-05-02T03:26:59.936Z,61.41
2023-05-02T03:32:09.443Z,61.98
2023-05-02T03:37:13.852Z,62.52
2023-05-02T03:42:16.841Z,62.97
2023-05-02T03:47:20.074Z,62.56
2023-05-02T03:52:23.596Z,61.90
2023-05-02T03:57:32.412Z,62.92
2023-05-02T04:02:36.090Z,62.72
2023-05-02T04:07:39.561Z,62.09
2023-05-02T04:12:43.780Z,61.64
2023-05-02T04:17:48.132Z,60.17
2023-05-02T04:22:51.700Z,57.90
2023-05-02T04:27:54.618Z,57.40
2023-05-02T04:32:59.562Z,54.87
2023-05-02T04:38:08.021Z,53.62
2023-05-02T04:43:11.730Z,50.83
2023-05-02T04:48:25.933Z,50.71
2023-05-02T04:53:29.173Z,51.06
2023-05-02T04:58:33.264Z,50.43
2023-05-02T05:03:39.431Z,49.90
2023-05-02T05:08:46.139Z,50.29
2023-05-02T05:13:50.688Z,49.43
2023-05-02T05:18:54.366Z,48.34
2023-05-02T05:23:57.352Z,48.19
2023-05-02T05:29:03.775Z,48.57
2023-05-02T05:34:14.781Z,48.25
2023-05-02T05:39:18.974Z,48.64
2023-05-02T05:44:25.893Z,47.63
2023-05-02T05:49:29.088Z,47.04
2023-05-02T05:54:31.962Z,45.43
2023-05-02T05:59:36.887Z,44.98
2023-05-02T06:04:41.632Z,43.16
2023-05-02T06:09:45.019Z,44.28
2023-05-02T06:14:48.936Z,43.01
2023-05-02T06:19:51.892Z,41.89
2023-05-02T06:24:54.720Z,42.22
2023-05-02T06:29:57.956Z,42.29
2023-05-02T06:35:01.183Z,42.44
2023-05-02T06:40:06.629Z,42.27
2023-05-02T06:45:09.668Z,43.05
2023-05-02T06:50:12.460Z,42.28
2023-05-02T06:55:15.691Z,41.89
2023-05-02T07:00:19.846Z,42.36
2023-05-02T07:05:22.744Z,43.36
2023-05-02T07:10:25.615Z,43.75
2023-05-02T07:15:28.677Z,43.36
2023-05-02T07:20:31.540Z,42.30
2023-05-02T07:25:34.414Z,42.72
2023-05-02T07:30:37.332Z,41.45
2023-05-02T07:35:40.579Z,40.03
2023-05-02T07:40:43.912Z,40.66
2023-05-02T07:45:46.734Z,40.88
2023-05-02T07:50:49.620Z,41.09
2023-05-02T07:55:52.360Z,41.11
2023-05-02T08:00:55.165Z,40.73
2023-05-02T08:05:58.319Z,39.55
2023-05-02T08:11:01.228Z,38.72
2023-05-02T08:16:04.590Z,39.35
2023-05-02T08:21:07.499Z,40.46
2023-05-02T08:26:10.320Z,41.01
2023-05-02T08:31:13.201Z,41.11
2023-05-02T08:36:18.099Z,41.04
2023-05-02T08:41:20.974Z,40.86
2023-05-02T08:46:29.212Z,40.61
2023-05-02T08:51:33.141Z,42.19
2023-05-02T08:56:36.246Z,41.91
2023-05-02T09:01:42.147Z,42.50
2023-05-02T09:06:45.527Z,41.97
2023-05-02T09:11:48.425Z,41.80
2023-05-02T09:16:51.357Z,41.56
2023-05-02T09:22:00.692Z,41.55
2023-05-02T09:27:06.457Z,41.52
2023-05-02T09:32:09.481Z,41.50
2023-05-02T09:37:13.904Z,41.98
2023-05-02T09:42:31.861Z,41.58
2023-05-02T09:47:34.808Z,41.53
2023-05-02T09:52:37.750Z,40.58
2023-05-02T09:57:43.880Z,40.42
2023-05-02T10:02:50.686Z,40.31
2023-05-02T10:07:53.640Z,40.76
2023-05-02T10:12:56.563Z,41.76
2023-05-02T10:18:01.658Z,42.51
2023-05-02T10:23:05.535Z,41.72
2023-05-02T10:28:08.493Z,40.54
2023-05-02T10:33:17.041Z,39.60
2023-05-02T10:38:24.116Z,39.52
2023-05-02T10:43:31.104Z,39.87
2023-05-02T10:48:34.756Z,39.73
2023-05-02T10:53:40.688Z,39.54
2023-05-02T10:58:45.233Z,40.20
2023-05-02T11:04:01.205Z,40.02
2023-05-02T11:09:16.360Z,39.90
2023-05-02T11:14:34.226Z,39.92
2023-05-02T11:19:46.084Z,39.86
2023-05-02T11:24:49.816Z,39.74
2023-05-02T11:29:56.118Z,40.20
2023-05-02T11:34:59.342Z,40.19
2023-05-02T11:40:13.039Z,40.06
2023-05-02T11:45:16.427Z,40.21
2023-05-02T11:50:19.256Z,40.57
2023-05-02T11:55:22.346Z,40.31
2023-05-02T12:00:28.642Z,41.14
2023-05-02T12:05:31.933Z,41.51
2023-05-02T12:10:38.585Z,41.35
2023-05-02T12:15:41.649Z,40.95
2023-05-02T12:20:45.448Z,41.73
2023-05-02T12:25:49.555Z,41.63
2023-05-02T12:30:52.794Z,42.11
2023-05-02T12:35:55.547Z,42.36
2023-05-02T12:40:58.302Z,42.68
2023-05-02T12:46:11.262Z,42.78
2023-05-02T12:51:24.470Z,42.59
2023-05-02T12:56:32.989Z,42.74
2023-05-02T13:01:36.483Z,42.95
2023-05-02T13:06:39.545Z,43.31
2023-05-02T13:11:49.859Z,43.79
2023-05-02T13:16:53.958Z,44.23
2023-05-02T13:21:56.813Z,44.63
2023-05-02T13:26:59.628Z,45.06
2023-05-02T13:32:02.502Z,45.24
2023-05-02T13:37:05.715Z,45.36
2023-05-02T13:42:08.694Z,45.75
2023-05-02T13:47:11.538Z,45.57
2023-05-02T13:52:14.460Z,46.02
2023-05-02T13:57:17.338Z,46.06
2023-05-02T14:02:20.288Z,46.18
2023-05-02T14:07:23.070Z,46.16
2023-05-02T14:12:26.235Z,46.70
2023-05-02T14:17:29.048Z,47.05
2023-05-02T14:22:31.828Z,47.06
2023-05-02T14:27:34.675Z,47.72
2023-05-02T14:32:37.912Z,47.84
2023-05-02T14:37:40.888Z,48.00
2023-05-02T14:42:43.984Z,47.79
2023-05-02T14:47:47.577Z,47.77
2023-05-02T14:52:51.285Z,47.69
2023-05-02T14:57:55.536Z,48.07
2023-05-02T15:02:59.171Z,48.35
2023-05-02T15:08:02.105Z,48.43
2023-05-02T15:13:05.186Z,48.56
2023-05-02T15:18:08.318Z,48.71
2023-05-02T15:23:11.383Z,48.91
2023-05-02T15:28:14.185Z,49.09
2023-05-02T15:33:17.175Z,49.14
2023-05-02T15:38:20.401Z,48.75
2023-05-02T15:43:24.474Z,48.62
2023-05-02T15:48:33.803Z,49.15
2023-05-02T15:53:40.001Z,49.20
2023-05-02T15:58:43.158Z,49.65
2023-05-02T16:03:45.931Z,49.75
2023-05-02T16:08:48.789Z,50.03
2023-05-02T16:13:52.743Z,50.14
2023-05-02T16:18:55.624Z,50.97
2023-05-02T16:23:58.767Z,50.79
2023-05-02T16:29:01.779Z,52.11
2023-05-02T16:34:04.736Z,51.95
2023-05-02T16:39:07.749Z,52.27
2023-05-02T16:44:10.924Z,53.15
2023-05-02T16:49:14.158Z,53.44
2023-05-02T16:54:16.953Z,53.72
2023-05-02T16:59:19.877Z,54.60
2023-05-02T17:04:22.930Z,54.78
2023-05-02T17:09:26.520Z,54.26
2023-05-02T17:14:29.277Z,54.55
2023-05-02T17:19:32.328Z,54.93
2023-05-02T17:24:36.035Z,54.99
2023-05-02T17:29:38.954Z,55.02
2023-05-02T17:34:43.578Z,55.10
2023-05-02T17:39:47.163Z,55.38
2023-05-02T17:44:50.170Z,54.94
2023-05-02T17:49:54.172Z,55.06
2023-05-02T17:54:57.061Z,55.11
2023-05-02T18:00:00.480Z,55.32
2023-05-02T18:05:04.350Z,55.83
2023-05-02T18:10:07.918Z,55.51
2023-05-02T18:15:10.901Z,55.52
2023-05-02T18:20:14.682Z,55.33
2023-05-02T18:25:18.085Z,55.74
2023-05-02T18:30:20.989Z,56.04
2023-05-02T18:35:23.973Z,56.27
2023-05-02T18:40:26.853Z,55.70
2023-05-02T18:45:29.832Z,56.02
2023-05-02T18:50:32.875Z,56.25
2023-05-02T18:55:35.803Z,56.28
2023-05-02T19:00:38.822Z,56.83
2023-05-02T19:05:42.563Z,57.00
2023-05-02T19:10:45.475Z,56.90
2023-05-02T19:15:48.276Z,56.88
2023-05-02T19:20:51.235Z,57.46
2023-05-02T19:25:54.311Z,57.39
2023-05-02T19:30:57.441Z,57.24
2023-05-02T19:36:00.284Z,56.97
2023-05-02T19:41:03.609Z,57.24
2023-05-02T19:46:06.694Z,56.94
2023-05-02T19:51:09.897Z,57.22
2023-05-02T19:56:12.647Z,57.39
2023-05-02T20:01:15.515Z,56.39
2023-05-02T20:06:18.339Z,57.07
2023-05-02T20:11:21.866Z,57.25
2023-05-02T20:16:24.918Z,57.06
2023-05-02T20:21:27.631Z,56.46
2023-05-02T20:26:31.739Z,57.12
2023-05-02T20:31:34.700Z,56.84
2023-05-02T20:36:37.586Z,56.70
2023-05-02T20:41:40.494Z,56.84
2023-05-02T20:46:43.797Z,57.12
2023-05-02T20:51:46.626Z,56.61
2023-05-02T20:56:49.609Z,56.91
2023-05-02T21:01:52.446Z,57.19
2023-05-02T21:06:57.134Z,57.18
2023-05-02T21:12:00.045Z,56.90
2023-05-02T21:17:03.244Z,57.55
2023-05-02T21:22:06.689Z,57.26
2023-05-02T21:27:09.508Z,56.85
2023-05-02T21:32:12.623Z,57.32
2023-05-02T21:37:15.443Z,57.18
2023-05-02T21:42:18.419Z,57.60
2023-05-02T21:47:22.032Z,58.38
2023-05-02T21:52:24.888Z,58.59
2023-05-02T21:57:27.680Z,58.79
2023-05-02T22:02:30.916Z,58.81
2023-05-02T22:07:34.229Z,58.11
2023-05-02T22:12:37.084Z,58.84
2023-05-02T22:17:43.621Z,58.61
2023-05-02T22:22:46.410Z,58.85
2023-05-02T22:27:49.230Z,59.55
2023-05-02T22:32:52.058Z,59.01
2023-05-02T22:37:55.103Z,59.15
2023-05-02T22:42:58.809Z,58.76
2023-05-02T22:48:01.649Z,59.93
2023-05-02T22:53:04.706Z,59.21
2023-05-02T22:58:07.636Z,59.45
2023-05-02T23:03:11.879Z,59.08
2023-05-02T23:08:14.967Z,59.41
2023-05-02T23:13:17.753Z,59.87
2023-05-02T23:18:21.597Z,60.39
2023-05-02T23:23:24.654Z,59.29
2023-05-02T23:28:27.442Z,59.94
2023-05-02T23:33:31.158Z,59.89
2023-05-02T23:38:35.487Z,59.56
2023-05-02T23:43:38.253Z,59.79
2023-05-02T23:48:43.703Z,59.24
2023-05-02T23:53:46.849Z,59.46
2023-05-02T23:58:49.947Z,58.93
